createdAt,value
2023-04-09T00:01:29.924Z,96689.88
2023-04-09T00:03:56.449Z,96688.56
2023-04-09T00:06:22.995Z,96692.25
2023-04-09T00:08:49.531Z,96690.91
2023-04-09T00:11:16.103Z,96689.88
2023-04-09T00:13:42.560Z,96695.16
2023-04-09T00:16:09.214Z,96694.06
2023-04-09T00:18:36.160Z,96689.88
2023-04-09T00:21:02.588Z,96697.53
2023-04-09T00:23:29.228Z,96693.56
2023-04-09T00:25:55.823Z,96699.84
2023-04-09T00:28:22.363Z,96698.78
2023-04-09T00:30:48.955Z,96694.03
2023-04-09T00:33:15.597Z,96697.19
2023-04-09T00:35:42.243Z,96699.28
2023-04-09T00:38:08.869Z,96703.00
2023-04-09T00:40:35.509Z,96696.91
2023-04-09T00:43:02.550Z,96699.56
2023-04-09T00:45:29.277Z,96691.09
2023-04-09T00:47:56.210Z,96703.75
2023-04-09T00:50:22.982Z,96704.28
2023-04-09T00:52:49.671Z,96696.59
2023-04-09T00:55:18.315Z,96698.72
2023-04-09T00:57:45.016Z,96702.38
2023-04-09T01:00:13.135Z,96704.97
2023-04-09T01:02:41.024Z,96704.97
2023-04-09T01:05:08.329Z,96709.75
2023-04-09T01:08:02.046Z,96713.94
2023-04-09T01:10:35.963Z,96713.41
2023-04-09T01:13:02.506Z,96712.38
2023-04-09T01:15:33.936Z,96713.41
2023-04-09T01:18:07.474Z,96702.31
2023-04-09T01:20:43.591Z,96704.41
2023-04-09T01:23:10.124Z,96713.38
2023-04-09T01:26:04.303Z,96714.94
2023-04-09T01:28:39.412Z,96706.47
2023-04-09T01:31:13.757Z,96707.78
2023-04-09T01:33:42.196Z,96714.63
2023-04-09T01:36:09.925Z,96715.91
2023-04-09T01:38:39.845Z,96718.03
2023-04-09T01:41:07.815Z,96723.34
2023-04-09T01:43:35.092Z,96718.06
2023-04-09T01:46:03.741Z,96713.28
2023-04-09T01:48:31.600Z,96713.78
2023-04-09T01:50:59.060Z,96713.50
2023-04-09T01:53:28.460Z,96719.00
2023-04-09T01:55:58.328Z,96710.53
2023-04-09T01:58:26.327Z,96719.00
2023-04-09T02:00:59.013Z,96710.84
2023-04-09T02:03:31.465Z,96711.06
2023-04-09T02:06:12.068Z,96711.34
2023-04-09T02:08:39.428Z,96710.72
2023-04-09T02:11:10.787Z,96712.03
2023-04-09T02:13:40.393Z,96709.13
2023-04-09T02:16:08.051Z,96710.00
2023-04-09T02:18:34.663Z,96710.22
2023-04-09T02:21:01.345Z,96707.31
2023-04-09T02:23:28.076Z,96703.91
2023-04-09T02:25:54.804Z,96704.38
2023-04-09T02:28:21.505Z,96712.56
2023-04-09T02:30:48.111Z,96712.53
2023-04-09T02:33:14.698Z,96713.81
2023-04-09T02:35:42.413Z,96713.22
2023-04-09T02:38:13.998Z,96714.75
2023-04-09T02:40:41.410Z,96712.34
2023-04-09T02:43:08.974Z,96716.09
2023-04-09T02:45:36.094Z,96722.38
2023-04-09T02:48:02.708Z,96716.50
2023-04-09T02:50:29.529Z,96718.59
2023-04-09T02:52:56.188Z,96721.19
2023-04-09T02:55:22.859Z,96720.63
2023-04-09T02:57:49.432Z,96715.41
2023-04-09T03:00:16.288Z,96719.56
2023-04-09T03:02:43.281Z,96720.03
2023-04-09T03:05:10.382Z,96722.00
2023-04-09T03:07:36.927Z,96715.94
2023-04-09T03:10:03.594Z,96715.63
2023-04-09T03:12:30.155Z,96723.63
2023-04-09T03:14:56.680Z,96723.06
2023-04-09T03:17:25.830Z,96726.78
2023-04-09T03:19:52.599Z,96723.22
2023-04-09T03:22:19.181Z,96724.00
2023-04-09T03:24:45.812Z,96723.22
2023-04-09T03:27:12.463Z,96719.25
2023-04-09T03:29:39.044Z,96720.03
2023-04-09T03:32:05.865Z,96723.88
2023-04-09T03:34:32.429Z,96720.16
2023-04-09T03:36:59.124Z,96722.63
2023-04-09T03:39:26.105Z,96724.91
2023-04-09T03:41:53.226Z,96725.38
2023-04-09T03:44:19.775Z,96724.75
2023-04-09T03:46:46.385Z,96725.50
2023-04-09T03:49:12.915Z,96724.03
2023-04-09T03:51:39.498Z,96724.25
2023-04-09T03:54:06.102Z,96726.06
2023-04-09T03:56:32.705Z,96726.88
2023-04-09T03:58:59.328Z,96722.91
2023-04-09T04:01:26.007Z,96727.19
2023-04-09T04:03:52.632Z,96724.66
2023-04-09T04:06:19.400Z,96731.38
2023-04-09T04:08:45.967Z,96744.00
2023-04-09T04:11:12.622Z,96737.13
2023-04-09T04:13:39.387Z,96739.22
2023-04-09T04:16:10.226Z,96745.16
2023-04-09T04:18:37.336Z,96735.53
2023-04-09T04:21:04.147Z,96743.66
2023-04-09T04:23:30.802Z,96745.94
2023-04-09T04:25:58.172Z,96743.88
2023-04-09T04:28:24.813Z,96737.50
2023-04-09T04:30:51.380Z,96742.75
2023-04-09T04:33:18.542Z,96758.22
2023-04-09T04:35:45.397Z,96749.16
2023-04-09T04:38:12.050Z,96761.19
2023-04-09T04:40:38.625Z,96745.09
2023-04-09T04:43:05.390Z,96760.22
2023-04-09T04:45:31.966Z,96758.69
2023-04-09T04:47:58.484Z,96758.16
2023-04-09T04:50:25.134Z,96758.63
2023-04-09T04:52:51.742Z,96756.44
2023-04-09T04:55:18.328Z,96744.88
2023-04-09T04:57:44.885Z,96756.44
2023-04-09T05:00:12.413Z,96762.13
2023-04-09T05:02:39.166Z,96770.47
2023-04-09T05:05:06.687Z,96770.16
2023-04-09T05:07:33.924Z,96765.31
2023-04-09T05:10:00.571Z,96765.56
2023-04-09T05:12:27.176Z,96774.72
2023-04-09T05:14:53.711Z,96778.22
2023-04-09T05:17:20.355Z,96778.53
2023-04-09T05:19:52.496Z,96780.50
2023-04-09T05:22:19.386Z,96776.56
2023-04-09T05:24:46.147Z,96780.00
2023-04-09T05:27:12.708Z,96786.13
2023-04-09T05:29:39.258Z,96784.03
2023-04-09T05:32:06.974Z,96785.81
2023-04-09T05:34:33.509Z,96784.97
2023-04-09T05:37:00.036Z,96789.50
2023-04-09T05:39:26.626Z,96797.69
2023-04-09T05:41:53.218Z,96797.13
2023-04-09T05:44:19.785Z,96793.22
2023-04-09T05:46:46.325Z,96790.84
2023-04-09T05:49:12.865Z,96785.44
2023-04-09T05:51:39.420Z,96801.44
2023-04-09T05:54:06.039Z,96805.84
2023-04-09T05:56:32.604Z,96807.22
2023-04-09T05:58:59.098Z,96800.47
2023-04-09T06:01:25.653Z,96807.94
2023-04-09T06:03:53.910Z,96800.69
2023-04-09T06:06:21.870Z,96805.66
2023-04-09T06:08:48.280Z,96809.47
2023-04-09T06:11:14.740Z,96796.66
2023-04-09T06:13:41.544Z,96799.84
2023-04-09T06:16:09.009Z,96807.81
2023-04-09T06:18:36.840Z,96807.41
2023-04-09T06:21:03.960Z,96804.75
2023-04-09T06:23:31.083Z,96803.91
2023-04-09T06:25:57.794Z,96805.44
2023-04-09T06:28:24.501Z,96811.13
2023-04-09T06:30:51.238Z,96809.59
2023-04-09T06:33:17.904Z,96808.47
2023-04-09T06:35:44.608Z,96807.53
2023-04-09T06:38:11.349Z,96809.97
2023-04-09T06:40:39.141Z,96812.38
2023-04-09T06:43:06.193Z,96804.41
2023-04-09T06:45:33.813Z,96809.19
2023-04-09T06:48:01.044Z,96809.69
2023-04-09T06:50:27.817Z,96809.19
2023-04-09T06:52:55.344Z,96801.72
2023-04-09T06:55:21.989Z,96817.34
2023-04-09T06:57:48.632Z,96811.25
2023-04-09T07:00:15.511Z,96807.00
2023-04-09T07:02:42.230Z,96816.25
2023-04-09T07:05:09.302Z,96819.44
2023-04-09T07:07:35.836Z,96814.38
2023-04-09T07:10:02.398Z,96814.63
2023-04-09T07:12:32.740Z,96816.47
2023-04-09T07:15:03.730Z,96815.09
2023-04-09T07:17:31.242Z,96809.75
2023-04-09T07:19:57.842Z,96826.16
2023-04-09T07:22:26.780Z,96820.31
2023-04-09T07:24:56.526Z,96814.22
2023-04-09T07:27:24.809Z,96812.34
2023-04-09T07:29:51.264Z,96809.59
2023-04-09T07:32:17.771Z,96806.66
2023-04-09T07:34:44.492Z,96811.13
2023-04-09T07:37:11.806Z,96810.50
2023-04-09T07:39:38.509Z,96813.38
2023-04-09T07:42:05.825Z,96811.50
2023-04-09T07:44:36.515Z,96816.25
2023-04-09T07:47:04.660Z,96812.00
2023-04-09T07:49:31.348Z,96822.06
2023-04-09T07:51:59.741Z,96814.69
2023-04-09T07:54:26.389Z,96810.47
2023-04-09T07:56:52.801Z,96807.31
2023-04-09T07:59:19.276Z,96819.09
2023-04-09T08:01:45.981Z,96810.59
2023-04-09T08:04:13.723Z,96822.81
2023-04-09T08:06:40.829Z,96817.78
2023-04-09T08:09:07.793Z,96820.44
2023-04-09T08:11:34.245Z,96823.91
2023-04-09T08:14:03.593Z,96824.44
2023-04-09T08:16:30.484Z,96822.31
2023-04-09T08:18:57.444Z,96826.31
2023-04-09T08:21:23.977Z,96826.09
2023-04-09T08:23:51.099Z,96821.84
2023-04-09T08:26:17.835Z,96827.66
2023-04-09T08:28:44.784Z,96825.59
2023-04-09T08:31:11.264Z,96818.72
2023-04-09T08:33:37.714Z,96818.66
2023-04-09T08:36:08.586Z,96823.41
2023-04-09T08:38:35.073Z,96831.34
2023-04-09T08:41:01.506Z,96819.41
2023-04-09T08:43:42.001Z,96826.53
2023-04-09T08:46:18.662Z,96832.88
2023-04-09T08:48:46.775Z,96820.19
2023-04-09T08:51:17.461Z,96820.19
2023-04-09T08:53:47.537Z,96822.31
2023-04-09T08:56:16.996Z,96818.84
2023-04-09T08:58:44.786Z,96818.78
2023-04-09T09:01:25.478Z,96821.19
2023-04-09T09:03:59.455Z,96822.44
2023-04-09T09:06:32.725Z,96822.69
2023-04-09T09:09:09.561Z,96822.09
2023-04-09T09:11:43.690Z,96819.44
2023-04-09T09:14:15.971Z,96821.50
2023-04-09T09:16:44.930Z,96814.59
2023-04-09T09:19:26.648Z,96817.28
2023-04-09T09:22:01.986Z,96812.75
2023-04-09T09:24:28.908Z,96815.28
2023-04-09T09:26:55.741Z,96812.41
2023-04-09T09:29:22.235Z,96808.97
2023-04-09T09:31:52.998Z,96804.78
2023-04-09T09:34:20.945Z,96811.88
2023-04-09T09:36:47.988Z,96807.66
2023-04-09T09:39:17.317Z,96811.88
2023-04-09T09:41:45.781Z,96795.41
2023-04-09T09:44:29.990Z,96794.25
2023-04-09T09:46:57.566Z,96794.25
2023-04-09T09:49:23.978Z,96785.44
2023-04-09T09:51:53.115Z,96783.53
2023-04-09T09:54:23.781Z,96786.94
2023-04-09T09:56:52.689Z,96789.03
2023-04-09T09:59:27.053Z,96792.78
2023-04-09T10:02:00.239Z,96791.41
2023-04-09T10:04:29.773Z,96789.59
2023-04-09T10:06:56.965Z,96789.59
2023-04-09T10:09:23.897Z,96781.69
2023-04-09T10:11:50.429Z,96777.84
2023-04-09T10:14:18.692Z,96778.88
2023-04-09T10:16:46.400Z,96786.09
2023-04-09T10:19:14.988Z,96781.06
2023-04-09T10:21:47.558Z,96771.25
2023-04-09T10:24:15.986Z,96767.97
2023-04-09T10:26:45.028Z,96766.34
2023-04-09T10:29:15.946Z,96768.34
2023-04-09T10:31:54.169Z,96761.28
2023-04-09T10:34:27.195Z,96750.38
2023-04-09T10:36:58.367Z,96754.13
2023-04-09T10:39:29.894Z,96753.19
2023-04-09T10:41:57.277Z,96744.16
2023-04-09T10:44:28.248Z,96735.88
2023-04-09T10:46:55.482Z,96745.09
2023-04-09T10:49:26.957Z,96738.19
2023-04-09T10:52:13.744Z,96732.81
2023-04-09T10:54:43.843Z,96734.13
2023-04-09T10:57:13.548Z,96729.06
2023-04-09T10:59:45.384Z,96727.44
2023-04-09T11:02:45.121Z,96720.25
2023-04-09T11:05:17.489Z,96714.66
2023-04-09T11:08:09.640Z,96709.25
2023-04-09T11:10:37.630Z,96703.78
2023-04-09T11:13:04.819Z,96713.84
2023-04-09T11:15:34.364Z,96708.53
2023-04-09T11:18:01.792Z,96706.66
2023-04-09T11:20:28.584Z,96708.47
2023-04-09T11:22:56.077Z,96705.88
2023-04-09T11:25:24.825Z,96702.22
2023-04-09T11:27:51.275Z,96705.00
2023-04-09T11:30:17.803Z,96689.13
2023-04-09T11:32:44.740Z,96695.25
2023-04-09T11:35:22.083Z,96690.25
2023-04-09T11:37:50.117Z,96690.91
2023-04-09T11:40:25.584Z,96692.28
2023-04-09T11:42:54.034Z,96685.88
2023-04-09T11:45:23.357Z,96676.72
2023-04-09T11:47:50.387Z,96681.25
2023-04-09T11:50:17.771Z,96671.81
2023-04-09T11:52:46.034Z,96680.09
2023-04-09T11:55:22.175Z,96684.09
2023-04-09T11:57:51.102Z,96671.94
2023-04-09T12:00:18.076Z,96671.75
2023-04-09T12:02:46.799Z,96670.47
2023-04-09T12:05:22.395Z,96669.91
2023-04-09T12:07:56.294Z,96672.56
2023-04-09T12:10:27.975Z,96674.66
2023-04-09T12:12:54.636Z,96671.47
2023-04-09T12:15:25.369Z,96664.19
2023-04-09T12:17:54.433Z,96662.50
2023-04-09T12:20:36.599Z,96663.59
2023-04-09T12:23:04.759Z,96660.56
2023-04-09T12:25:36.526Z,96659.31
2023-04-09T12:28:04.478Z,96659.50
2023-04-09T12:30:31.464Z,96666.00
2023-04-09T12:32:59.106Z,96659.59
2023-04-09T12:35:25.843Z,96652.06
2023-04-09T12:37:53.194Z,96652.50
2023-04-09T12:40:20.363Z,96648.94
2023-04-09T12:42:47.034Z,96648.06
2023-04-09T12:45:15.554Z,96651.00
2023-04-09T12:47:42.491Z,96649.16
2023-04-09T12:50:10.252Z,96647.69
2023-04-09T12:52:36.987Z,96653.03
2023-04-09T12:55:04.315Z,96639.63
2023-04-09T12:57:30.859Z,96636.44
2023-04-09T12:59:57.425Z,96642.56
2023-04-09T13:02:24.436Z,96637.81
2023-04-09T13:04:52.732Z,96634.75
2023-04-09T13:07:20.300Z,96623.22
2023-04-09T13:09:48.560Z,96631.13
2023-04-09T13:12:16.220Z,96632.09
2023-04-09T13:14:46.585Z,96616.13
2023-04-09T13:17:13.432Z,96614.56
2023-04-09T13:19:42.080Z,96615.25
2023-04-09T13:22:09.404Z,96615.94
2023-04-09T13:24:36.552Z,96607.06
2023-04-09T13:27:04.736Z,96603.88
2023-04-09T13:29:31.887Z,96604.81
2023-04-09T13:31:58.702Z,96598.78
2023-04-09T13:34:25.288Z,96593.94
2023-04-09T13:36:51.810Z,96597.41
2023-04-09T13:39:18.235Z,96594.91
2023-04-09T13:41:44.787Z,96592.34
2023-04-09T13:44:11.424Z,96583.88
2023-04-09T13:46:37.894Z,96582.31
2023-04-09T13:49:04.382Z,96586.44
2023-04-09T13:51:31.572Z,96573.63
2023-04-09T13:53:58.012Z,96571.66
2023-04-09T13:56:25.200Z,96578.16
2023-04-09T13:58:51.894Z,96586.84
2023-04-09T14:01:18.716Z,96576.47
2023-04-09T14:03:45.489Z,96566.81
2023-04-09T14:06:13.420Z,96570.09
2023-04-09T14:08:39.859Z,96568.97
2023-04-09T14:11:06.523Z,96565.53
2023-04-09T14:13:32.920Z,96567.38
2023-04-09T14:16:00.519Z,96569.28
2023-04-09T14:18:27.236Z,96562.84
2023-04-09T14:20:53.661Z,96551.19
2023-04-09T14:23:20.182Z,96555.56
2023-04-09T14:25:46.524Z,96553.56
2023-04-09T14:28:12.914Z,96561.38
2023-04-09T14:30:39.338Z,96545.28
2023-04-09T14:33:05.793Z,96550.41
2023-04-09T14:35:32.308Z,96555.72
2023-04-09T14:37:58.872Z,96549.41
2023-04-09T14:40:25.368Z,96552.97
2023-04-09T14:42:51.849Z,96550.63
2023-04-09T14:45:18.294Z,96557.69
2023-04-09T14:47:44.803Z,96545.28
2023-04-09T14:50:12.848Z,96543.78
2023-04-09T14:52:39.409Z,96543.88
2023-04-09T14:55:11.958Z,96547.19
2023-04-09T14:57:39.695Z,96544.34
2023-04-09T15:00:08.828Z,96543.69
2023-04-09T15:02:35.607Z,96538.66
2023-04-09T15:05:03.409Z,96543.69
2023-04-09T15:07:30.035Z,96545.47
2023-04-09T15:09:59.421Z,96549.13
2023-04-09T15:12:30.546Z,96548.63
2023-04-09T15:15:07.091Z,96552.38
2023-04-09T15:17:33.914Z,96548.31
2023-04-09T15:20:00.499Z,96538.09
2023-04-09T15:22:26.968Z,96538.75
2023-04-09T15:24:53.655Z,96544.88
2023-04-09T15:27:20.426Z,96541.13
2023-04-09T15:29:47.312Z,96541.25
2023-04-09T15:32:13.782Z,96541.03
2023-04-09T15:34:40.278Z,96534.25
2023-04-09T15:37:06.763Z,96536.41
2023-04-09T15:39:33.257Z,96534.63
2023-04-09T15:41:59.805Z,96539.38
2023-04-09T15:44:26.224Z,96535.81
2023-04-09T15:46:52.803Z,96531.31
2023-04-09T15:49:19.838Z,96541.75
2023-04-09T15:51:46.409Z,96541.16
2023-04-09T15:54:12.906Z,96544.91
2023-04-09T15:56:40.202Z,96550.06
2023-04-09T15:59:08.319Z,96547.28
2023-04-09T16:01:36.451Z,96547.88
2023-04-09T16:04:04.907Z,96548.78
2023-04-09T16:06:31.619Z,96541.09
2023-04-09T16:08:58.052Z,96549.66
2023-04-09T16:11:24.527Z,96552.63
2023-04-09T16:13:51.049Z,96560.91
2023-04-09T16:16:17.588Z,96551.84
2023-04-09T16:18:44.076Z,96563.06
2023-04-09T16:21:10.568Z,96563.38
2023-04-09T16:23:37.153Z,96566.75
2023-04-09T16:26:03.866Z,96570.19
2023-04-09T16:28:30.350Z,96564.44
2023-04-09T16:30:56.962Z,96580.00
2023-04-09T16:33:23.372Z,96575.56
2023-04-09T16:35:49.874Z,96580.19
2023-04-09T16:38:16.287Z,96587.28
2023-04-09T16:40:43.693Z,96582.31
2023-04-09T16:43:10.297Z,96585.06
2023-04-09T16:45:36.772Z,96584.19
2023-04-09T16:48:03.574Z,96585.25
2023-04-09T16:50:30.006Z,96584.97
2023-04-09T16:52:56.590Z,96588.78
2023-04-09T16:55:23.070Z,96587.97
2023-04-09T16:57:49.478Z,96590.94
2023-04-09T17:00:17.713Z,96592.59
2023-04-09T17:02:45.911Z,96584.22
2023-04-09T17:05:12.556Z,96594.06
2023-04-09T17:07:39.079Z,96596.00
2023-04-09T17:10:06.618Z,96592.38
2023-04-09T17:12:33.338Z,96600.09
2023-04-09T17:15:00.795Z,96599.91
2023-04-09T17:17:27.461Z,96605.31
2023-04-09T17:19:54.035Z,96605.66
2023-04-09T17:22:20.576Z,96608.63
2023-04-09T17:24:47.223Z,96615.56
2023-04-09T17:27:13.722Z,96612.97
2023-04-09T17:29:40.961Z,96619.44
2023-04-09T17:32:07.479Z,96623.16
2023-04-09T17:34:33.879Z,96619.00
2023-04-09T17:37:00.371Z,96630.41
2023-04-09T17:39:29.277Z,96628.56
2023-04-09T17:41:58.058Z,96625.09
2023-04-09T17:44:28.024Z,96623.81
2023-04-09T17:46:54.554Z,96631.78
2023-04-09T17:49:22.383Z,96642.97
2023-04-09T17:51:48.940Z,96643.53
2023-04-09T17:54:15.373Z,96644.66
2023-04-09T17:56:41.891Z,96649.75
2023-04-09T17:59:08.300Z,96657.22
2023-04-09T18:01:34.783Z,96662.09
2023-04-09T18:04:01.847Z,96665.03
2023-04-09T18:06:28.968Z,96677.47
2023-04-09T18:08:55.410Z,96681.69
2023-04-09T18:11:23.560Z,96683.56
2023-04-09T18:13:51.555Z,96687.28
2023-04-09T18:16:20.775Z,96692.34
2023-04-09T18:18:47.488Z,96694.22
2023-04-09T18:21:15.182Z,96703.75
2023-04-09T18:23:41.656Z,96700.63
2023-04-09T18:26:08.252Z,96709.66
2023-04-09T18:28:35.379Z,96720.28
2023-04-09T18:31:02.014Z,96716.81
2023-04-09T18:33:28.463Z,96724.00
2023-04-09T18:35:54.938Z,96732.25
2023-04-09T18:38:21.580Z,96731.47
2023-04-09T18:40:48.042Z,96737.84
2023-04-09T18:43:14.466Z,96741.03
2023-04-09T18:45:40.915Z,96745.31
2023-04-09T18:48:08.691Z,96751.66
2023-04-09T18:50:35.428Z,96748.53
2023-04-09T18:53:03.527Z,96749.53
2023-04-09T18:55:30.418Z,96757.78
2023-04-09T18:57:57.385Z,96768.94
2023-04-09T19:00:27.425Z,96772.63
2023-04-09T19:02:54.023Z,96776.59
2023-04-09T19:05:20.747Z,96776.09
2023-04-09T19:07:47.118Z,96781.69
2023-04-09T19:10:13.579Z,96788.34
2023-04-09T19:12:47.284Z,96797.38
2023-04-09T19:15:13.871Z,96793.13
2023-04-09T19:17:40.576Z,96797.97
2023-04-09T19:20:07.659Z,96798.75
2023-04-09T19:22:34.144Z,96804.59
2023-04-09T19:25:00.605Z,96811.50
2023-04-09T19:27:27.041Z,96825.66
2023-04-09T19:29:53.516Z,96805.97
2023-04-09T19:32:19.943Z,96823.47
2023-04-09T19:34:46.357Z,96826.13
2023-04-09T19:37:15.028Z,96824.03
2023-04-09T19:39:41.538Z,96828.56
2023-04-09T19:42:08.296Z,96836.00
2023-04-09T19:44:34.831Z,96835.50
2023-04-09T19:47:01.309Z,96836.81
2023-04-09T19:49:28.607Z,96845.88
2023-04-09T19:51:55.107Z,96843.00
2023-04-09T19:54:21.820Z,96843.00
2023-04-09T19:56:48.264Z,96854.38
2023-04-09T19:59:14.901Z,96852.81
2023-04-09T20:01:41.342Z,96852.28
2023-04-09T20:04:09.233Z,96862.38
2023-04-09T20:06:35.766Z,96858.19
2023-04-09T20:09:02.220Z,96863.47
2023-04-09T20:11:28.630Z,96861.03
2023-04-09T20:13:56.715Z,96871.41
2023-04-09T20:16:23.179Z,96870.13
2023-04-09T20:18:49.601Z,96866.41
2023-04-09T20:21:16.089Z,96873.56
2023-04-09T20:23:45.044Z,96879.91
2023-04-09T20:26:13.316Z,96879.41
2023-04-09T20:28:40.765Z,96885.81
2023-04-09T20:31:07.829Z,96877.28
2023-04-09T20:33:34.476Z,96884.50
2023-04-09T20:36:01.249Z,96882.38
2023-04-09T20:38:27.791Z,96886.88
2023-04-09T20:40:54.269Z,96884.50
2023-04-09T20:43:21.219Z,96895.63
2023-04-09T20:45:47.740Z,96888.47
2023-04-09T20:48:14.845Z,96900.16
2023-04-09T20:50:41.307Z,96907.34
2023-04-09T20:53:07.982Z,96914.22
2023-04-09T20:55:35.589Z,96912.91
2023-04-09T20:58:02.863Z,96914.25
2023-04-09T21:00:29.757Z,96922.44
2023-04-09T21:02:56.516Z,96922.19
2023-04-09T21:05:24.230Z,96922.75
2023-04-09T21:07:52.176Z,96922.75
2023-04-09T21:10:18.601Z,96920.91
2023-04-09T21:12:45.197Z,96924.09
2023-04-09T21:15:11.974Z,96929.94
2023-04-09T21:17:38.522Z,96930.75
2023-04-09T21:20:05.576Z,96930.50
2023-04-09T21:22:32.071Z,96932.88
2023-04-09T21:24:58.495Z,96928.09
2023-04-09T21:27:24.980Z,96927.56
2023-04-09T21:29:51.373Z,96935.28
2023-04-09T21:32:17.890Z,96945.38
2023-04-09T21:34:44.444Z,96943.28
2023-04-09T21:37:11.073Z,96948.03
2023-04-09T21:39:38.369Z,96950.69
2023-04-09T21:42:05.840Z,96949.38
2023-04-09T21:44:32.328Z,96951.47
2023-04-09T21:46:58.753Z,96953.38
2023-04-09T21:49:25.328Z,96957.34
2023-04-09T21:51:52.746Z,96962.41
2023-04-09T21:54:19.364Z,96960.28
2023-04-09T21:56:46.295Z,96961.88
2023-04-09T21:59:12.666Z,96960.81
2023-04-09T22:01:39.271Z,96961.88
2023-04-09T22:04:05.818Z,96957.66
2023-04-09T22:06:32.438Z,96967.19
2023-04-09T22:08:58.950Z,96972.22
2023-04-09T22:11:29.358Z,96971.69
2023-04-09T22:13:57.039Z,96969.28
2023-04-09T22:16:24.374Z,96969.81
2023-04-09T22:18:51.636Z,96977.78
2023-04-09T22:21:18.260Z,96974.59
2023-04-09T22:23:44.970Z,96977.78
2023-04-09T22:26:11.499Z,96981.50
2023-04-09T22:28:38.390Z,96985.47
2023-04-09T22:31:05.777Z,96977.25
2023-04-09T22:33:32.332Z,96983.63
2023-04-09T22:35:59.362Z,96976.72
2023-04-09T22:38:26.156Z,96971.16
2023-04-09T22:40:52.710Z,96981.25
2023-04-09T22:43:19.669Z,96978.34
2023-04-09T22:45:55.878Z,96976.22
2023-04-09T22:48:22.981Z,96984.72
2023-04-09T22:50:50.338Z,96984.19
2023-04-09T22:53:20.714Z,96986.81
2023-04-09T22:55:51.223Z,96983.91
2023-04-09T22:58:18.433Z,96981.53
2023-04-09T23:00:45.370Z,96985.50
2023-04-09T23:03:11.923Z,96987.38
2023-04-09T23:05:38.979Z,96989.19
2023-04-09T23:08:06.353Z,96999.53
2023-04-09T23:10:34.144Z,96996.88
2023-04-09T23:13:00.831Z,97000.84
2023-04-09T23:15:28.044Z,97000.84
2023-04-09T23:17:54.687Z,97014.59
2023-04-09T23:20:21.169Z,97003.75
2023-04-09T23:22:48.265Z,97012.47
2023-04-09T23:25:18.217Z,97012.19
2023-04-09T23:27:44.877Z,97021.22
2023-04-09T23:30:16.435Z,97021.47
2023-04-09T23:32:44.490Z,97018.56
2023-04-09T23:35:11.495Z,97011.69
2023-04-09T23:37:42.410Z,97007.44
2023-04-09T23:40:10.519Z,97008.50
2023-04-09T23:42:36.960Z,97005.84
2023-04-09T23:45:05.382Z,97004.22
2023-04-09T23:47:33.537Z,96996.56
2023-04-09T23:50:09.648Z,96997.09
2023-04-09T23:52:37.912Z,96996.28
2023-04-09T23:55:05.735Z,97000.00
2023-04-09T23:57:32.236Z,96995.25
2023-04-09T23:59:58.779Z,96999.47
